Latest Coastal Weather Observations for Strahan

IDT60701

Issued at 6:52 am EST Wednesday 28 June 2017 (issued every 10 minutes, with the page automatically refreshed every 10 minutes)

About coastal observations | Map of coastal stations | Coastal observations for TAS | Marine services | Other Formats
Station Details ID: 097072 Name: STRAHAN AERODROME Lat: -42.16 Lon: 145.29 Height: 21.0 m
Data from the previous 72 hours. | See also: Recent months at Strahan
Date/Time
EST
Temp
°C
Wind Pressure Rain since
9am
mm
Weather Cloud Vis
km
Sea
Height
m
Swell
Dir  Spd
kts
Gust
kts
hPa Trend Height
m
Period
s
Dir
28/06:30am 7.8 N 4 6 1020.4 - 1.2 - Partly cloudy 10 - - - -
28/06:00am 8.2 N 6 8 1020.4 - 1.2 - Cloudy 10 - - - -
28/05:30am 8.1 NNW 5 6 1020.4 - 1.2 - Partly cloudy 10 - - - -
28/05:00am 8.0 NNW 4 6 1020.3 - 1.2 - Partly cloudy 10 - - - -
28/04:30am 8.4 NNE 7 10 1020.3 - 1.2 - Cloudy 10 - - - -
28/04:00am 8.5 NNE 8 12 1020.3 - 1.2 - Cloudy 10 - - - -
28/03:30am 8.6 NNE 8 12 1020.3 - 1.2 - Cloudy 10 - - - -
28/03:00am 8.3 NNE 8 10 1020.3 - 1.2 - Cloudy 10 - - - -
28/02:30am 8.4 NNE 9 13 1020.4 - 1.2 - Cloudy 10 - - - -
28/02:00am 8.3 NNE 7 10 1020.4 - 1.2 - Cloudy 10 - - - -
28/01:30am 8.4 NNE 8 10 1020.3 - 1.2 - Cloudy 10 - - - -
28/01:00am 8.3 NNE 8 13 1020.5 - 1.2 - Cloudy 10 - - - -
28/12:30am 8.3 NNE 8 11 1020.8 - 1.2 - Cloudy 10 - - - -
28/12:00am 8.3 NNE 8 10 1020.8 - 1.0 - Cloudy 10 - - - -
 
Date/Time
EST
Temp
°C
Wind Pressure Rain since
9am
mm
Weather Cloud Vis
km
Sea
Height
m
Swell
Dir  Spd
kts
Gust
kts
hPa Trend Height
m
Period
s
Dir
27/11:30pm 8.1 NNE 8 11 1020.9 - 1.0 - Partly cloudy 10 - - - -
27/11:00pm 8.0 N 7 9 1021.0 - 1.0 - Cloudy 10 - - - -
27/10:30pm 7.6 NNE 7 9 1021.1 - 1.0 - Partly cloudy 10 - - - -
27/10:00pm 7.7 NNE 7 9 1021.2 - 1.0 - Partly cloudy 10 - - - -
27/09:30pm 7.0 NNE 6 8 1021.2 - 1.0 - Partly cloudy 10 - - - -
27/09:00pm 7.0 NNE 7 9 1021.3 - 1.0 - Partly cloudy 10 - - - -
27/08:30pm 6.9 NNE 6 8 1021.5 - 1.0 - Partly cloudy 10 - - - -
27/08:00pm 7.7 NNE 6 8 1021.6 - 1.0 - Partly cloudy 6 - - - -
27/07:30pm 7.2 NNE 6 7 1021.5 - 0.8 - Partly cloudy 10 - - - -
27/07:00pm 7.6 NNE 5 7 1021.3 - 0.8 - Partly cloudy 10 - - - -
27/06:30pm 8.4 N 8 10 1021.3 - 0.8 - Partly cloudy 10 - - - -
27/06:29pm 8.4 N 8 10 1021.3 - 0.8 - Partly cloudy 10 - - - -
27/06:13pm 8.4 NNW 7 11 1021.5 - 0.6 - Partly cloudy 5 - - - -
27/06:00pm 8.4 N 5 7 1021.3 - 0.0 - Cloudy 10 - - - -
27/05:30pm 8.5 NNE 5 7 1021.2 - 0.0 - Partly cloudy 10 - - - -
27/05:00pm 8.7 NNE 6 7 1021.1 - 0.0 - Partly cloudy 10 - - - -
27/04:30pm 9.7 N 8 11 1021.3 - 0.0 - Partly cloudy 10 - - - -
27/04:00pm 10.1 N 5 7 1021.2 - 0.0 - Partly cloudy 10 - - - -
27/03:30pm 10.3 NNW 7 12 1021.3 - 0.0 - Partly cloudy 10 - - - -
27/03:00pm 10.8 N 8 10 1021.4 - 0.0 - Cloudy 10 - - - -
27/02:30pm 11.6 N 8 11 1021.5 - 0.0 - Partly cloudy 10 - - - -
27/02:00pm 11.6 N 10 14 1021.6 - 0.0 - Partly cloudy 10 - - - -
27/01:30pm 11.6 N 8 11 1021.7 - 0.0 - Cloudy 10 - - - -
27/01:00pm 10.9 N 8 11 1022.0 - 0.0 - Cloudy 10 - - - -
27/12:30pm 10.5 NNE 7 11 1022.4 - 0.0 - Cloudy 10 - - - -
27/12:00pm 9.8 NNE 8 11 1023.0 - 0.0 - Cloudy 10 - - - -
27/11:30am 9.4 NNE 7 11 1023.3 - 0.0 - Cloudy 10 - - - -
27/11:00am 9.3 NNE 7 11 1023.5 - 0.0 - Partly cloudy 10 - - - -
27/10:30am 8.9 NNE 8 11 1023.7 - 0.0 - Cloudy 10 - - - -
27/10:00am 8.4 NNE 6 9 1023.8 - 0.0 - Cloudy 10 - - - -
27/09:30am 7.8 NNE 7 10 1023.8 - 0.0 - Cloudy 10 - - - -
27/09:00am 7.5 NNE 7 10 1023.7 - 0.4 - Cloudy 10 - - - -
27/08:30am 7.2 NNE 7 9 1023.7 - 0.4 - Cloudy 10 - - - -
27/08:00am 7.0 NNE 7 9 1023.5 - 0.4 - Cloudy 10 - - - -
27/07:30am 7.0 NNE 7 9 1023.6 - 0.4 - Cloudy 10 - - - -
27/07:00am 6.9 NNE 7 9 1023.5 - 0.4 - Cloudy 10 - - - -
27/06:30am 6.9 NNE 6 9 1023.7 - 0.4 - Cloudy 10 - - - -
27/06:00am 6.8 NNE 6 8 1023.7 - 0.4 - Cloudy 10 - - - -
27/05:30am 6.9 NNE 7 9 1023.6 - 0.4 - Cloudy 10 - - - -
27/05:00am 6.9 NNE 7 9 1023.6 - 0.4 - Cloudy 10 - - - -
27/04:30am 6.9 NNE 8 11 1023.8 - 0.4 - Cloudy 10 - - - -
27/04:00am 7.0 NNE 8 11 1023.8 - 0.4 - Cloudy 10 - - - -
27/03:30am 6.9 NNE 6 9 1023.7 - 0.4 - Cloudy 10 - - - -
27/03:00am 6.9 NNE 7 10 1023.9 - 0.4 - Cloudy 10 - - - -
27/02:30am 7.0 NE 5 7 1023.9 - 0.4 - Cloudy 10 - - - -
27/02:00am 7.0 NNE 6 8 1023.9 - 0.4 - Cloudy 10 - - - -
27/01:30am 6.9 NNE 5 7 1023.8 - 0.4 - Cloudy 10 - - - -
27/01:00am 7.0 NNE 7 9 1023.8 - 0.4 - Cloudy 10 - - - -
27/12:30am 6.9 NNE 6 8 1024.0 - 0.4 - Cloudy 10 - - - -
27/12:00am 6.8 NNE 6 7 1024.3 - 0.4 - Mostly cloudy 10 - - - -
 
Date/Time
EST
Temp
°C
Wind Pressure Rain since
9am
mm
Weather Cloud Vis
km
Sea
Height
m
Swell
Dir  Spd
kts
Gust
kts
hPa Trend Height
m
Period
s
Dir
26/11:30pm 7.0 ENE 2 3 1024.4 - 0.4 - Cloudy 10 - - - -
26/11:00pm 7.4 NNE 5 6 1024.4 - 0.4 - Cloudy 10 - - - -
26/10:30pm 7.3 N 5 6 1024.5 - 0.4 - Cloudy 10 - - - -
26/10:00pm 7.4 NNE 5 8 1024.5 - 0.4 - Cloudy 10 - - - -
26/09:30pm 7.3 NNE 6 7 1024.3 - 0.4 - Cloudy 10 - - - -
26/09:00pm 7.4 NNE 7 8 1024.2 - 0.4 - Cloudy 10 - - - -
26/08:30pm 7.4 NNE 6 8 1024.0 - 0.4 - Cloudy 10 - - - -
26/08:00pm 7.2 NNE 5 6 1023.9 - 0.4 - Cloudy 10 - - - -
26/07:30pm 7.1 N 5 7 1023.7 - 0.4 - Cloudy 10 - - - -
26/07:00pm 6.9 ENE 3 5 1023.5 - 0.4 - Cloudy 10 - - - -
26/06:30pm 7.1 NNE 3 5 1023.3 - 0.4 - Cloudy 10 - - - -
26/06:00pm 7.2 CALM 0 0 1023.2 - 0.4 - Partly cloudy 10 - - - -
26/05:30pm 7.2 WSW 4 6 1022.9 - 0.4 - Partly cloudy 10 - - - -
26/05:00pm 8.4 WSW 5 6 1022.8 - 0.4 - Partly cloudy 10 - - - -
26/04:30pm 9.5 WSW 6 7 1022.7 - 0.4 - Partly cloudy 10 - - - -
26/04:00pm 10.4 W 5 7 1022.6 - 0.4 - Cloudy 10 - - - -
26/03:30pm 10.2 WSW 5 6 1022.6 - 0.4 - Partly cloudy 10 - - - -
26/03:00pm 11.6 WNW 7 11 1022.2 - 0.4 - Mostly clear 10 - - - -
26/02:30pm 11.5 WSW 6 9 1022.0 - 0.4 - Partly cloudy 10 - - - -
26/02:00pm 10.7 WSW 8 10 1021.8 - 0.4 - Partly cloudy 10 - - - -
26/01:30pm 11.3 WSW 8 10 1021.8 - 0.4 - Partly cloudy 10 - - - -
26/01:00pm 10.1 WSW 7 12 1021.7 - 0.4 - Partly cloudy 10 - - - -
26/12:30pm 10.1 E 3 5 1021.7 - 0.4 - Partly cloudy 10 - - - -
26/12:09pm 9.1 S 3 4 1021.8 - 0.4 - Partly cloudy 10 - - - -
26/12:00pm 9.3 WSW 3 5 1021.8 - 0.4 Recent precip. Cloudy 6 - - - -
26/11:46am 9.4 SSE 4 7 1022.0 - 0.4 - Partly cloudy 5 - - - -
26/11:30am 9.7 E 6 8 1021.7 - 0.4 - Partly cloudy 10 - - - -
26/11:21am 9.6 SSE 5 8 1021.9 - 0.2 - Partly cloudy 10 - - - -
26/11:09am 9.2 ENE 4 8 1021.8 - 0.2 - Partly cloudy 5 - - - -
26/11:00am 9.4 NNE 5 7 1021.7 - 0.2 - Partly cloudy 10 - - - -
26/10:30am 9.3 NE 5 7 1021.6 - 0.2 - Partly cloudy 10 - - - -
26/10:00am 7.7 NNE 5 7 1021.3 - 0.2 - Partly cloudy 10 - - - -
26/09:59am 7.6 NNE 5 7 1021.3 - 0.2 - Partly cloudy 10 - - - -
26/09:41am 7.4 NE 4 7 1021.2 - 0.2 - Partly cloudy 5 - - - -
26/09:30am 7.2 ENE 5 6 1021.0 - 0.0 - Partly cloudy 10 - - - -
26/09:20am 7.0 NNE 5 6 1020.7 - 0.0 - Partly cloudy 10 - - - -
26/09:00am 6.6 NE 3 5 1020.5 - 7.0 Rain Cloudy 4 - - - -
26/08:57am 6.7 NE 3 5 1020.5 - 7.0 - Partly cloudy 5 - - - -
26/08:30am 5.9 NE 4 6 1020.0 - 6.6 - Partly cloudy 10 - - - -
26/08:00am 5.6 N 5 6 1019.5 - 6.6 - Partly cloudy 10 - - - -
26/07:48am 5.8 N 4 6 1019.5 - 6.6 - Partly cloudy 10 - - - -
26/07:30am 5.9 N 5 5 1019.4 - 6.6 - Partly cloudy 4 - - - -
26/07:18am 5.6 NE 2 5 1019.3 - 6.2 - Partly cloudy 5 - - - -
26/07:00am 5.7 ENE 5 6 1019.0 - 5.8 - Partly cloudy 10 - - - -
26/06:30am 6.1 NNE 5 6 1018.9 - 5.8 - Partly cloudy 10 - - - -
26/06:00am 5.9 NNE 4 5 1018.4 - 5.8 - Cloudy 10 - - - -
26/05:30am 5.8 N 5 6 1017.9 - 5.8 - Partly cloudy 10 - - - -
26/05:00am 5.8 NE 4 5 1017.5 - 5.8 - Partly cloudy 10 - - - -
26/04:30am 6.1 NNE 5 6 1017.1 - 5.6 - Partly cloudy 10 - - - -
26/04:00am 6.0 ESE 3 5 1016.8 - 5.6 - Partly cloudy 10 - - - -
26/03:30am 6.9 SSW 7 8 1016.3 - 5.6 - Partly cloudy 10 - - - -
26/03:00am 7.0 SW 7 10 1016.2 - 5.6 - Mostly cloudy 10 - - - -
26/02:30am 7.4 WSW 9 14 1015.9 - 5.6 - Partly cloudy 10 - - - -
26/02:00am 6.5 SSW 6 9 1015.4 - 5.6 - Partly cloudy 10 - - - -
26/01:30am 7.1 SW 6 10 1015.0 - 5.6 - Partly cloudy 10 - - - -
26/01:00am 6.2 SSW 6 8 1014.6 - 5.4 - Partly cloudy 10 - - - -
26/12:30am 6.9 SSW 7 9 1014.5 - 5.4 - Partly cloudy 10 - - - -
26/12:14am 7.4 SSW 8 11 1014.3 - 5.4 - Partly cloudy 10 - - - -
26/12:03am 7.7 SW 8 12 1014.2 - 5.4 - Partly cloudy 5 - - - -
26/12:00am 7.6 SW 7 11 1014.2 - 5.4 Rain Cloudy 7 - - - -
 
Date/Time
EST
Temp
°C
Wind Pressure Rain since
9am
mm
Weather Cloud Vis
km
Sea
Height
m
Swell
Dir  Spd
kts
Gust
kts
hPa Trend Height
m
Period
s
Dir
25/11:30pm 7.3 WSW 8 11 1014.0 - 5.0 - Partly cloudy 10 - - - -
25/11:00pm 7.7 WSW 11 19 1013.8 - 5.0 - Partly cloudy 10 - - - -
25/10:30pm 6.7 SW 8 10 1013.4 - 5.0 - Partly cloudy 10 - - - -
25/10:00pm 7.2 SW 7 10 1013.2 - 5.0 - Partly cloudy 10 - - - -
25/09:50pm 7.2 SW 9 12 1013.1 - 5.0 - Partly cloudy 10 - - - -
25/09:38pm 7.6 SW 14 25 1013.0 - 5.0 - Partly cloudy 5 - - - -
25/09:36pm 7.7 SW 14 25 1013.1 - 5.0 - Partly cloudy 5 - - - -
25/09:30pm 7.9 WSW 9 17 1012.8 - 4.4 - Partly cloudy 10 - - - -
25/09:00pm 7.7 SW 16 21 1012.3 - 4.4 - Partly cloudy 10 - - - -
25/08:30pm 7.9 SW 10 13 1012.1 - 4.4 - Partly cloudy 10 - - - -
25/08:00pm 8.0 SW 7 10 1011.7 - 4.4 - Partly cloudy 10 - - - -
25/07:39pm 7.9 SW 11 18 1011.4 - 4.4 - Partly cloudy 9 - - - -
25/07:30pm 7.9 SW 14 21 1011.4 - 4.2 - Partly cloudy 6 - - - -
25/07:26pm 7.9 WSW 17 27 1011.3 - 4.2 - Partly cloudy 5 - - - -
25/07:15pm 8.7 WSW 14 29 1011.1 - 3.8 - Partly cloudy 10 - - - -
25/07:00pm 8.3 SW 11 16 1010.6 - 3.8 - Partly cloudy 10 - - - -
25/06:30pm 8.6 SW 9 15 1010.1 - 3.8 - Partly cloudy 7 - - - -
25/06:00pm 8.9 SW 8 15 1009.4 - 3.6 Rain Cloudy 10 - - - -
25/05:30pm 8.7 SSW 10 15 1008.9 - 3.4 - Partly cloudy 10 - - - -
25/05:00pm 8.9 SW 10 15 1008.4 - 3.4 - Partly cloudy 10 - - - -
25/04:31pm 9.4 WSW 15 25 1008.1 - 3.4 - Partly cloudy 10 - - - -
25/04:30pm 9.5 WSW 14 25 1008.0 - 3.4 - Partly cloudy 10 - - - -
25/04:00pm 9.1 SW 15 23 1007.4 - 3.4 - Partly cloudy 10 - - - -
25/03:54pm 9.0 SW 16 23 1007.4 - 3.4 - Partly cloudy 10 - - - -
25/03:38pm 8.9 SW 17 28 1007.1 - 3.2 - Partly cloudy 5 - - - -
25/03:34pm 9.6 WSW 15 28 1007.0 - 2.6 - Partly cloudy 10 - - - -
25/03:30pm 10.2 WSW 13 18 1006.8 - 2.6 - Partly cloudy 10 - - - -
25/03:00pm 10.3 WSW 16 24 1006.4 - 2.6 - Cloudy 10 - - - -
25/02:30pm 11.0 WSW 17 23 1006.0 - 2.6 - Partly cloudy 10 - - - -
25/02:11pm 9.7 WSW 14 19 1005.7 - 2.6 - Partly cloudy 10 - - - -
25/02:00pm 9.5 WSW 14 27 1005.7 - 2.6 - Partly cloudy 5 - - - -
25/01:56pm 9.3 SW 16 27 1005.7 - 2.4 - Partly cloudy 5 - - - -
25/01:51pm 9.8 WSW 17 27 1005.7 - 2.4 - Partly cloudy 9 - - - -
25/01:30pm 10.0 WSW 15 21 1005.5 - 2.4 - Partly cloudy 6 - - - -
25/01:00pm 10.6 W 15 22 1005.4 - 2.2 - Partly cloudy 10 - - - -
25/12:55pm 10.5 W 14 22 1005.3 - 2.2 - Partly cloudy 10 - - - -
25/12:47pm 10.3 W 15 25 1005.3 - 2.2 - Partly cloudy 7 - - - -
25/12:38pm 9.8 W 17 25 1005.3 - 2.2 - Partly cloudy 5 - - - -
25/12:30pm 10.2 W 15 20 1005.3 - 2.0 - Partly cloudy 10 - - - -
25/12:06pm 9.5 W 18 26 1005.4 - 2.0 - Partly cloudy 7 - - - -
25/12:00pm 9.6 W 18 27 1005.6 - 1.6 Recent precip. Mostly cloudy 7 - - - -
25/11:34am 9.4 WNW 24 39 1005.6 - 1.0 - Partly cloudy 5 - - - -
25/11:33am 9.9 WNW 23 39 1005.6 - 0.8 - Partly cloudy 8 - - - -
25/11:30am 10.9 WNW 22 29 1005.3 - 0.8 - Partly cloudy 10 - - - -
25/11:18am 10.7 WNW 22 31 1005.4 - 0.8 - Partly cloudy 5 - - - -
25/11:06am 11.4 WNW 24 34 1005.4 - 0.6 - Partly cloudy 10 - - - -
25/11:00am 11.4 WNW 23 32 1005.5 - 0.6 - Partly cloudy 10 - - - -
25/10:57am 11.2 WNW 22 32 1005.5 - 0.6 - Partly cloudy 10 - - - -
25/10:30am 10.7 WNW 23 30 1005.5 - 0.6 - Partly cloudy 6 - - - -
25/10:22am 10.9 NW 23 32 1005.5 - 0.4 - Partly cloudy 9 - - - -
25/10:15am 10.8 NW 22 32 1005.6 - 0.4 - Partly cloudy 9 - - - -
25/10:12am 10.8 NW 22 31 1005.6 - 0.4 - Partly cloudy 5 - - - -
25/10:03am 11.3 NW 23 33 1005.6 - 0.0 - Partly cloudy 10 - - - -
25/10:00am 11.2 NW 24 33 1005.5 - 0.0 - Partly cloudy 10 - - - -
25/09:35am 11.1 NW 21 31 1005.7 - 0.0 - Partly cloudy 10 - - - -
25/09:30am 11.0 NW 23 31 1005.8 - 0.0 - Partly cloudy 10 - - - -
25/09:07am 10.4 NW 22 32 1005.7 - 0.0 - Partly cloudy 10 - - - -
25/09:00am 10.8 NW 21 28 1005.7 - 6.8 Recent precip. Cloudy 10 - - - -
25/08:30am 10.0 NW 19 26 1006.0 - 6.8 - Partly cloudy 9 - - - -
25/08:24am 9.7 NW 19 26 1006.0 - 6.8 - Partly cloudy 10 - - - -
25/08:00am 10.0 NW 22 33 1006.3 - 6.0 - Partly cloudy 3 - - - -
25/07:59am 10.2 NW 22 33 1006.3 - 5.6 - Partly cloudy 4 - - - -
25/07:32am 11.0 NW 19 29 1006.2 - 4.6 - Partly cloudy 10 - - - -
25/07:30am 10.9 NW 19 26 1006.2 - 4.6 - Partly cloudy 10 - - - -
25/07:00am 10.9 NW 20 29 1006.4 - 4.6 - Partly cloudy 10 - - - -

Other Formats:

Comma delimited format used in spreadsheet applications
http://www.bom.gov.au/fwo/IDT60701/IDT60701.94956.axf

JavaScript Object Notation format (JSON) in row-major order
http://www.bom.gov.au/fwo/IDT60701/IDT60701.94956.json